Time;durP1;ratioP1;P1;durP2;ratioP2;P2;SDS_P1;SDS_P2;PMS_P1;PMS_P2;Temp;Humidity;BMP_temperature;BMP_pressure;BME280_temperature;BME280_humidity;BME280_pressure;Samples;Min_cycle;Max_cycle;Signal;HPM_P1;HPM_P2
2021/12/03 00:01:39;;;;;;;20.98;19.67;;;3.00;87.20;;;;;;5023035;28;20685;-72
2021/12/03 00:04:07;;;;;;;20.42;19.13;;;3.00;86.60;;;;;;5029079;28;20213;-72
2021/12/03 00:06:37;;;;;;;19.67;18.58;;;2.90;86.80;;;;;;5026840;28;20228;-71
2021/12/03 00:09:07;;;;;;;19.20;18.10;;;2.80;86.80;;;;;;5027972;28;20216;-71
2021/12/03 00:11:34;;;;;;;21.67;19.80;;;2.80;86.70;;;;;;5025832;28;20604;-71
2021/12/03 00:14:01;;;;;;;19.40;17.90;;;2.80;87.00;;;;;;5026357;28;20833;-71
2021/12/03 00:16:28;;;;;;;19.42;18.33;;;2.70;87.70;;;;;;5028442;28;21115;-71
2021/12/03 00:18:55;;;;;;;25.20;19.50;;;2.70;88.60;;;;;;5026400;28;20667;-72
2021/12/03 00:21:24;;;;;;;19.98;18.60;;;2.70;88.10;;;;;;5027890;28;20193;-71
2021/12/03 00:23:51;;;;;;;20.38;19.20;;;2.70;87.90;;;;;;5028139;28;20213;-71
2021/12/03 00:26:19;;;;;;;21.20;19.75;;;2.60;87.70;;;;;;5023616;28;20211;-71
2021/12/03 00:28:46;;;;;;;19.40;18.10;;;2.50;88.20;;;;;;5025180;28;20574;-71
2021/12/03 00:31:14;;;;;;;20.40;19.10;;;2.50;87.80;;;;;;5026578;28;20860;-71
2021/12/03 00:33:41;;;;;;;19.90;18.70;;;2.50;87.90;;;;;;5020257;28;20227;-72
2021/12/03 00:36:10;;;;;;;21.48;19.88;;;2.50;88.60;;;;;;5024260;28;20563;-71
2021/12/03 00:38:41;;;;;;;19.98;18.67;;;2.50;89.60;;;;;;5022827;28;20235;-71
2021/12/03 00:41:09;;;;;;;18.50;17.50;;;2.40;92.10;;;;;;5020893;28;20279;-71
2021/12/03 00:43:41;;;;;;;21.02;18.92;;;2.40;91.40;;;;;;5026549;28;20253;-71
2021/12/03 00:46:09;;;;;;;19.70;18.40;;;2.40;92.80;;;;;;5024440;28;20200;-71
2021/12/03 00:48:37;;;;;;;20.02;18.73;;;2.30;96.10;;;;;;5024168;28;20197;-71
2021/12/03 00:51:05;;;;;;;21.70;19.85;;;2.30;92.50;;;;;;5029369;28;20205;-71
2021/12/03 00:53:33;;;;;;;20.60;19.40;;;2.30;90.50;;;;;;5026414;28;20222;-71
2021/12/03 00:56:00;;;;;;;21.70;19.95;;;2.30;90.60;;;;;;5022620;28;20210;-72
2021/12/03 00:58:26;;;;;;;21.77;20.25;;;2.30;90.80;;;;;;5022114;28;20217;-72
2021/12/03 01:00:55;;;;;;;20.92;19.45;;;2.40;90.00;;;;;;5025615;28;20211;-72
2021/12/03 01:03:22;;;;;;;20.70;19.30;;;2.40;89.20;;;;;;5026108;28;20219;-74
2021/12/03 01:05:49;;;;;;;819.40;119.32;;;2.40;89.70;;;;;;5026385;28;20197;-72
2021/12/03 01:08:16;;;;;;;20.08;18.65;;;2.30;91.40;;;;;;5024532;28;20213;-74
2021/12/03 01:10:43;;;;;;;21.52;20.23;;;2.30;92.80;;;;;;5028705;28;20201;-74
2021/12/03 01:13:10;;;;;;;21.63;20.38;;;2.40;90.50;;;;;;5025213;28;20209;-74
2021/12/03 01:15:39;;;;;;;21.40;19.92;;;2.40;90.40;;;;;;5018965;28;20205;-74
2021/12/03 01:18:09;;;;;;;20.83;19.52;;;2.50;89.50;;;;;;5025375;28;21304;-72
2021/12/03 01:20:38;;;;;;;19.75;18.55;;;2.50;89.40;;;;;;5027114;28;20216;-72
2021/12/03 01:23:09;;;;;;;21.70;20.40;;;2.40;89.00;;;;;;5026743;28;20625;-72
2021/12/03 01:25:36;;;;;;;21.80;20.50;;;2.40;88.90;;;;;;5027523;28;20193;-72
2021/12/03 01:28:04;;;;;;;23.88;21.48;;;2.50;89.90;;;;;;5025964;28;20204;-72
2021/12/03 01:30:32;;;;;;;21.50;20.13;;;2.40;89.70;;;;;;5028300;28;20279;-72
2021/12/03 01:33:02;;;;;;;21.27;19.88;;;2.50;89.30;;;;;;5028027;28;20737;-74
2021/12/03 01:35:30;;;;;;;42.05;23.30;;;2.50;89.90;;;;;;5028229;28;20197;-74
2021/12/03 01:37:57;;;;;;;20.30;19.10;;;2.50;91.30;;;;;;5020249;28;20404;-72
2021/12/03 01:40:27;;;;;;;21.48;20.10;;;2.60;89.80;;;;;;5027681;28;20209;-72
2021/12/03 01:42:54;;;;;;;22.63;21.02;;;2.70;89.30;;;;;;5026877;28;20213;-72
2021/12/03 01:45:24;;;;;;;22.05;20.40;;;2.60;88.90;;;;;;5026447;28;20197;-72
2021/12/03 01:47:52;;;;;;;21.17;19.98;;;2.60;89.00;;;;;;5030011;28;20193;-72
2021/12/03 01:50:25;;;;;;;21.63;20.15;;;2.60;88.80;;;;;;5031404;28;20193;-72
2021/12/03 01:52:53;;;;;;;200.80;35.65;;;2.60;89.10;;;;;;5030830;28;20213;-72
2021/12/03 01:55:21;;;;;;;21.00;19.70;;;2.50;89.30;;;;;;5027264;28;20221;-72
2021/12/03 01:57:49;;;;;;;21.27;19.70;;;2.60;89.30;;;;;;5030292;28;20197;-72
2021/12/03 02:00:19;;;;;;;21.88;20.33;;;2.50;89.50;;;;;;5031389;28;20203;-72
2021/12/03 02:02:50;;;;;;;22.98;21.20;;;2.50;91.20;;;;;;5031297;28;20702;-72
2021/12/03 02:05:16;;;;;;;21.17;19.77;;;2.50;90.50;;;;;;5030077;28;20197;-72
2021/12/03 02:07:45;;;;;;;21.60;20.17;;;2.50;89.60;;;;;;5030973;28;20207;-74
2021/12/03 02:10:15;;;;;;;21.95;20.55;;;2.40;88.90;;;;;;5029769;28;20193;-74
2021/12/03 02:12:42;;;;;;;22.27;20.67;;;2.40;88.80;;;;;;5031568;28;20207;-72
2021/12/03 02:15:10;;;;;;;22.80;21.25;;;2.40;88.50;;;;;;5029043;28;20769;-71
2021/12/03 02:17:38;;;;;;;21.40;19.92;;;2.30;89.50;;;;;;5026019;28;20201;-70
2021/12/03 02:20:08;;;;;;;22.20;20.70;;;2.20;90.20;;;;;;5029664;28;20204;-71
2021/12/03 02:22:37;;;;;;;22.27;20.70;;;2.30;89.40;;;;;;5026876;28;20562;-71
2021/12/03 02:25:05;;;;;;;21.75;20.30;;;2.30;89.60;;;;;;5030633;28;20542;-71
2021/12/03 02:27:32;;;;;;;21.63;20.33;;;2.30;89.90;;;;;;5030116;28;20288;-71
2021/12/03 02:29:59;;;;;;;81.57;25.85;;;2.30;89.60;;;;;;5028894;28;20205;-71
2021/12/03 02:32:26;;;;;;;22.15;20.45;;;2.20;89.50;;;;;;5031177;28;20205;-71
2021/12/03 02:34:53;;;;;;;22.00;20.42;;;2.20;89.80;;;;;;5029980;28;20217;-71
2021/12/03 02:37:20;;;;;;;21.63;20.25;;;2.20;89.20;;;;;;5023676;28;20280;-71
2021/12/03 02:39:48;;;;;;;21.80;20.40;;;2.20;88.90;;;;;;5027501;28;20207;-71
2021/12/03 02:42:16;;;;;;;21.52;20.13;;;2.20;88.80;;;;;;5028841;28;20197;-71
2021/12/03 02:44:44;;;;;;;161.63;36.45;;;2.20;88.90;;;;;;5028526;28;20316;-71
2021/12/03 02:47:11;;;;;;;22.38;20.77;;;2.20;89.10;;;;;;5028225;28;20300;-71
2021/12/03 02:49:40;;;;;;;21.95;20.48;;;2.10;89.20;;;;;;5020672;28;20198;-71
2021/12/03 02:52:08;;;;;;;22.25;20.75;;;2.10;90.30;;;;;;5027080;28;20201;-71
2021/12/03 02:54:35;;;;;;;22.80;21.40;;;2.10;89.20;;;;;;5020691;28;20226;-71
2021/12/03 02:57:04;;;;;;;26.80;24.23;;;2.10;89.40;;;;;;5027639;28;20288;-71
2021/12/03 02:59:33;;;;;;;22.52;20.85;;;2.10;88.80;;;;;;5026553;28;20197;-71
2021/12/03 03:02:00;;;;;;;22.95;21.25;;;2.00;88.60;;;;;;5024954;28;20212;-71
2021/12/03 03:04:27;;;;;;;22.75;21.25;;;2.00;88.90;;;;;;5029185;28;20243;-71
2021/12/03 03:06:55;;;;;;;23.17;21.75;;;2.00;89.10;;;;;;5028057;28;20198;-71
2021/12/03 03:09:22;;;;;;;23.88;22.23;;;2.00;89.10;;;;;;5025528;28;20284;-71
2021/12/03 03:11:49;;;;;;;22.60;21.10;;;1.90;89.50;;;;;;5028557;28;20652;-71
2021/12/03 03:14:17;;;;;;;255.73;44.78;;;1.90;93.30;;;;;;5028947;28;20417;-71
2021/12/03 03:16:44;;;;;;;91.80;28.45;;;1.90;92.00;;;;;;5028056;28;20212;-71
2021/12/03 03:19:13;;;;;;;22.77;21.27;;;1.90;91.60;;;;;;5029846;28;20204;-71
2021/12/03 03:21:41;;;;;;;23.52;21.83;;;1.90;92.50;;;;;;5028810;28;20623;-71
2021/12/03 03:24:09;;;;;;;22.38;20.88;;;2.00;91.60;;;;;;5029169;28;20691;-71
2021/12/03 03:26:37;;;;;;;24.77;23.00;;;2.00;91.40;;;;;;5025779;28;20673;-71
2021/12/03 03:29:05;;;;;;;22.70;21.30;;;2.00;91.00;;;;;;5027825;28;20673;-71
2021/12/03 03:31:35;;;;;;;24.05;22.55;;;2.00;90.40;;;;;;5027070;28;20198;-71
2021/12/03 03:34:03;;;;;;;23.08;21.55;;;2.00;90.50;;;;;;5028573;28;20225;-71
2021/12/03 03:36:33;;;;;;;22.85;21.25;;;2.00;90.90;;;;;;5026073;28;20208;-71
2021/12/03 03:39:00;;;;;;;104.65;29.63;;;2.10;92.30;;;;;;5024467;28;20693;-71
2021/12/03 03:41:27;;;;;;;23.65;22.20;;;2.10;92.00;;;;;;5029205;28;20199;-71
2021/12/03 03:43:54;;;;;;;24.73;22.88;;;2.20;92.00;;;;;;5025818;28;20313;-71
2021/12/03 03:46:21;;;;;;;24.92;22.80;;;2.20;92.10;;;;;;5029278;28;20198;-71
2021/12/03 03:48:50;;;;;;;22.67;21.17;;;2.20;92.00;;;;;;5027537;28;20313;-71
2021/12/03 03:51:17;;;;;;;22.33;20.77;;;2.20;91.80;;;;;;5026707;28;20225;-70
2021/12/03 03:53:44;;;;;;;26.02;24.33;;;2.30;91.20;;;;;;5027249;28;20245;-71
2021/12/03 03:56:12;;;;;;;23.40;21.95;;;2.30;90.40;;;;;;5022751;28;20721;-71
2021/12/03 03:58:39;;;;;;;23.92;22.42;;;2.40;89.90;;;;;;5026739;28;20204;-71
2021/12/03 04:01:06;;;;;;;25.45;23.40;;;2.40;89.80;;;;;;5025539;28;20730;-71
2021/12/03 04:03:34;;;;;;;23.55;21.90;;;2.40;89.80;;;;;;5018197;28;20221;-71
2021/12/03 04:06:02;;;;;;;87.00;27.52;;;2.50;89.80;;;;;;5024857;28;20682;-71
2021/12/03 04:08:29;;;;;;;1095.75;143.35;;;2.40;90.70;;;;;;5028495;28;20205;-70
2021/12/03 04:10:57;;;;;;;24.23;22.63;;;2.40;92.70;;;;;;5026516;28;20201;-71
2021/12/03 04:13:24;;;;;;;25.73;24.10;;;2.50;92.90;;;;;;5025152;28;20720;-71
2021/12/03 04:15:51;;;;;;;25.13;23.40;;;2.60;91.10;;;;;;5028136;28;20213;-71
2021/12/03 04:18:18;;;;;;;23.67;22.08;;;2.60;90.00;;;;;;5018303;28;20233;-71
2021/12/03 04:20:45;;;;;;;24.20;22.40;;;2.50;89.30;;;;;;5018817;28;20659;-71
2021/12/03 04:23:18;;;;;;;26.90;25.05;;;2.50;89.60;;;;;;5028236;28;20481;-71
2021/12/03 04:25:44;;;;;;;24.95;23.25;;;2.50;89.70;;;;;;5027280;28;20193;-71
2021/12/03 04:28:12;;;;;;;25.33;23.25;;;2.50;90.80;;;;;;5027317;28;20197;-71
2021/12/03 04:30:40;;;;;;;25.10;23.20;;;2.50;90.90;;;;;;5025230;28;20201;-71
2021/12/03 04:33:07;;;;;;;23.55;22.05;;;2.60;91.20;;;;;;5027379;28;20214;-71
2021/12/03 04:35:34;;;;;;;106.05;31.58;;;2.60;90.80;;;;;;5024655;28;21381;-70
2021/12/03 04:38:02;;;;;;;28.20;26.25;;;2.70;90.00;;;;;;5024730;28;20230;-71
2021/12/03 04:40:30;;;;;;;26.35;24.55;;;2.60;90.60;;;;;;5023984;28;20193;-71
2021/12/03 04:42:57;;;;;;;27.13;25.33;;;2.60;90.80;;;;;;5027703;28;20567;-71
2021/12/03 04:45:26;;;;;;;25.17;23.52;;;2.60;90.10;;;;;;5017557;28;20282;-71
2021/12/03 04:47:54;;;;;;;25.85;24.10;;;2.50;89.90;;;;;;5027128;28;20189;-71
2021/12/03 04:50:23;;;;;;;25.45;23.80;;;2.60;89.40;;;;;;5026636;28;20201;-71
2021/12/03 04:52:51;;;;;;;25.17;23.33;;;2.60;91.40;;;;;;5026877;28;20300;-71
2021/12/03 04:55:18;;;;;;;27.55;25.65;;;2.60;91.00;;;;;;5027882;28;20222;-71
2021/12/03 04:57:49;;;;;;;27.55;25.77;;;2.60;91.40;;;;;;5029376;28;20277;-71
2021/12/03 05:00:20;;;;;;;138.60;35.38;;;2.60;90.40;;;;;;5027375;28;20198;-71
2021/12/03 05:02:48;;;;;;;498.67;73.05;;;2.60;92.10;;;;;;5027456;28;20220;-71
2021/12/03 05:05:15;;;;;;;26.67;25.02;;;2.60;92.10;;;;;;5027516;28;20224;-71
2021/12/03 05:07:57;;;;;;;28.77;26.88;;;2.50;91.10;;;;;;5021556;28;20193;-72
2021/12/03 05:10:25;;;;;;;26.65;24.85;;;2.60;90.60;;;;;;5023593;28;20197;-72
2021/12/03 05:12:57;;;;;;;26.17;24.48;;;2.60;89.70;;;;;;5026620;28;20219;-71
2021/12/03 05:15:24;;;;;;;27.33;25.52;;;2.70;89.20;;;;;;5027397;28;20902;-71
2021/12/03 05:17:51;;;;;;;26.83;25.13;;;2.60;88.90;;;;;;5019987;28;20200;-71
2021/12/03 05:20:18;;;;;;;25.65;24.05;;;2.60;89.10;;;;;;5025248;28;20296;-71
2021/12/03 05:22:45;;;;;;;26.15;24.55;;;2.50;88.70;;;;;;5027977;28;20207;-72
2021/12/03 05:25:12;;;;;;;25.60;23.98;;;2.50;88.90;;;;;;5026163;28;20198;-71
2021/12/03 05:27:40;;;;;;;25.85;24.15;;;2.50;88.90;;;;;;5026999;28;20193;-71
2021/12/03 05:30:10;;;;;;;26.02;24.52;;;2.50;88.70;;;;;;5027207;28;20284;-69
2021/12/03 05:32:37;;;;;;;26.25;24.45;;;2.50;88.40;;;;;;5026023;28;20201;-71
2021/12/03 05:35:04;;;;;;;26.02;24.38;;;2.60;88.20;;;;;;5014679;28;20216;-72
2021/12/03 05:37:31;;;;;;;27.85;26.08;;;2.60;87.90;;;;;;5025006;28;20490;-72
2021/12/03 05:39:58;;;;;;;27.60;25.58;;;2.70;87.90;;;;;;5021736;28;20194;-71
2021/12/03 05:42:25;;;;;;;26.13;24.42;;;2.70;86.80;;;;;;5026134;28;20189;-72
2021/12/03 05:44:53;;;;;;;27.00;25.25;;;2.70;87.00;;;;;;5023973;28;20196;-72
2021/12/03 05:47:22;;;;;;;26.88;25.27;;;2.70;86.60;;;;;;5018989;28;20233;-72
2021/12/03 05:49:49;;;;;;;27.75;25.90;;;2.60;86.90;;;;;;5027340;28;20194;-72
2021/12/03 05:52:16;;;;;;;29.20;27.00;;;2.70;86.70;;;;;;5026939;28;20317;-71
2021/12/03 05:54:44;;;;;;;28.55;26.65;;;2.70;86.60;;;;;;5016770;28;20221;-71
2021/12/03 05:57:11;;;;;;;29.65;27.65;;;2.70;86.50;;;;;;5023808;28;20208;-72
2021/12/03 05:59:39;;;;;;;28.20;26.40;;;2.70;86.80;;;;;;5025232;28;20204;-72
2021/12/03 06:02:06;;;;;;;29.02;26.85;;;2.70;87.10;;;;;;5022657;28;20228;-72
2021/12/03 06:04:34;;;;;;;27.67;25.88;;;2.70;87.10;;;;;;5026908;28;20598;-72
2021/12/03 06:07:01;;;;;;;27.85;26.05;;;2.70;87.60;;;;;;5022769;28;20221;-72
2021/12/03 06:09:28;;;;;;;27.98;26.27;;;2.70;87.80;;;;;;5022169;28;20284;-73
2021/12/03 06:11:55;;;;;;;27.08;25.25;;;2.70;87.60;;;;;;5020782;28;20224;-76
2021/12/03 06:14:22;;;;;;;28.45;26.45;;;2.80;87.40;;;;;;5022513;28;20316;-73
2021/12/03 06:16:49;;;;;;;29.05;27.05;;;2.80;87.40;;;;;;5025059;28;20224;-75
2021/12/03 06:19:16;;;;;;;29.00;27.20;;;2.80;86.50;;;;;;5025383;28;20204;-75
2021/12/03 06:21:44;;;;;;;28.70;26.45;;;2.90;86.10;;;;;;5026139;28;20292;-75
2021/12/03 06:24:11;;;;;;;31.13;28.75;;;2.70;87.40;;;;;;5026639;28;20230;-73
2021/12/03 06:26:38;;;;;;;31.50;29.02;;;2.60;88.20;;;;;;5019467;28;20190;-72
2021/12/03 06:29:05;;;;;;;28.52;26.35;;;2.60;89.10;;;;;;5025799;28;20766;-73
2021/12/03 06:31:33;;;;;;;32.58;28.55;;;2.70;87.70;;;;;;5022924;28;20194;-73
2021/12/03 06:34:01;;;;;;;29.98;27.77;;;2.70;86.90;;;;;;5029141;28;20213;-72
2021/12/03 06:36:27;;;;;;;29.23;27.23;;;2.60;87.10;;;;;;5029542;28;20223;-72
2021/12/03 06:38:57;;;;;;;30.30;28.30;;;2.50;87.30;;;;;;5026529;28;20194;-73
2021/12/03 06:41:24;;;;;;;28.98;26.58;;;2.40;87.00;;;;;;5027638;28;20213;-74
2021/12/03 06:43:52;;;;;;;57.08;30.73;;;2.40;87.80;;;;;;5026849;28;20583;-74
2021/12/03 06:46:19;;;;;;;26.77;24.80;;;2.40;93.40;;;;;;5026216;28;20193;-72
2021/12/03 06:48:46;;;;;;;29.63;27.10;;;2.40;92.50;;;;;;5030219;28;20247;-72
2021/12/03 06:51:13;;;;;;;30.52;28.27;;;2.40;91.50;;;;;;5028229;28;20193;-72
2021/12/03 06:53:43;;;;;;;28.48;26.38;;;2.40;92.00;;;;;;5030454;28;20213;-72
2021/12/03 06:56:21;;;;;;;29.33;27.13;;;2.30;93.80;;;;;;5028222;28;20662;-74
2021/12/03 06:58:48;;;;;;;28.48;26.45;;;2.30;92.60;;;;;;5024425;28;20197;-74
2021/12/03 07:01:16;;;;;;;27.58;25.88;;;2.10;89.30;;;;;;5029954;28;20204;-74
2021/12/03 07:03:43;;;;;;;28.77;26.85;;;2.10;88.80;;;;;;5024144;28;20217;-75
2021/12/03 07:06:10;;;;;;;26.90;25.20;;;2.00;88.30;;;;;;5029028;28;20643;-75
2021/12/03 07:08:38;;;;;;;30.92;28.27;;;2.00;88.50;;;;;;5027679;28;20293;-74
2021/12/03 07:11:05;;;;;;;29.45;27.25;;;2.00;88.10;;;;;;5020536;28;20198;-75
2021/12/03 07:13:33;;;;;;;30.48;28.27;;;1.90;88.10;;;;;;5025509;28;20221;-75
2021/12/03 07:16:04;;;;;;;29.63;27.63;;;1.80;87.80;;;;;;5029342;28;20224;-74
2021/12/03 07:18:31;;;;;;;1999.90;516.50;;;1.80;89.30;;;;;;5026916;28;20258;-75
2021/12/03 07:20:58;;;;;;;29.13;27.13;;;1.80;92.30;;;;;;5028990;28;20205;-74
2021/12/03 07:23:25;;;;;;;27.85;25.85;;;1.80;93.60;;;;;;5028469;28;20671;-76
2021/12/03 07:25:52;;;;;;;29.33;27.17;;;1.80;93.10;;;;;;5026196;28;20285;-75
2021/12/03 07:28:18;;;;;;;28.45;26.55;;;1.80;96.20;;;;;;5028975;28;20670;-74
2021/12/03 07:30:47;;;;;;;28.77;26.77;;;1.80;94.10;;;;;;5027349;28;20206;-74
2021/12/03 07:33:16;;;;;;;26.45;24.55;;;1.80;94.70;;;;;;5022145;28;20294;-74
2021/12/03 07:35:46;;;;;;;27.58;25.48;;;1.90;94.80;;;;;;5027562;28;20333;-74
2021/12/03 07:38:14;;;;;;;27.45;25.45;;;1.90;93.20;;;;;;5029036;28;20255;-75
2021/12/03 07:40:42;;;;;;;27.30;25.50;;;1.80;91.10;;;;;;5028940;28;20651;-74
2021/12/03 07:43:09;;;;;;;28.20;26.40;;;1.80;89.60;;;;;;5027457;28;20252;-75
2021/12/03 07:45:36;;;;;;;28.42;26.73;;;1.80;87.90;;;;;;5015362;28;20204;-75
2021/12/03 07:48:06;;;;;;;26.55;24.85;;;1.80;88.70;;;;;;5021081;28;20231;-74
2021/12/03 07:50:34;;;;;;;28.45;26.67;;;1.80;89.00;;;;;;5021509;28;20198;-73
2021/12/03 07:53:01;;;;;;;26.83;25.02;;;1.80;88.60;;;;;;5028339;28;20578;-73
2021/12/03 07:55:28;;;;;;;28.80;26.90;;;1.80;88.30;;;;;;5026254;28;20213;-73
2021/12/03 07:57:56;;;;;;;28.63;26.77;;;1.80;88.10;;;;;;5021933;28;20289;-71
2021/12/03 08:00:24;;;;;;;30.25;28.10;;;1.80;87.60;;;;;;5020418;28;20311;-75
2021/12/03 08:02:51;;;;;;;29.05;27.00;;;1.80;88.20;;;;;;5026453;28;20703;-72
2021/12/03 08:05:20;;;;;;;30.45;28.23;;;1.80;88.60;;;;;;5026628;28;20644;-72
2021/12/03 08:07:49;;;;;;;29.48;27.40;;;1.90;88.10;;;;;;5028239;28;20204;-72
2021/12/03 08:10:18;;;;;;;28.35;26.38;;;1.90;89.20;;;;;;5023401;28;20197;-72
2021/12/03 08:12:46;;;;;;;29.67;27.42;;;2.00;89.00;;;;;;5028425;28;20733;-73
2021/12/03 08:15:14;;;;;;;28.75;26.85;;;2.00;88.70;;;;;;5026937;28;20201;-72
2021/12/03 08:17:41;;;;;;;29.45;27.35;;;2.00;88.40;;;;;;5028186;28;20296;-72
2021/12/03 08:20:11;;;;;;;109.22;33.97;;;2.10;88.10;;;;;;5028298;28;20205;-72
2021/12/03 08:22:39;;;;;;;28.38;26.30;;;2.20;90.40;;;;;;5023551;28;20197;-73
2021/12/03 08:25:08;;;;;;;26.23;24.48;;;2.30;89.00;;;;;;5024725;28;20205;-73
2021/12/03 08:27:35;;;;;;;28.10;26.10;;;2.40;87.40;;;;;;5025926;28;20201;-73
2021/12/03 08:30:02;;;;;;;28.55;26.65;;;2.40;86.30;;;;;;5027367;28;20204;-72
2021/12/03 08:32:29;;;;;;;27.88;25.80;;;2.40;85.60;;;;;;5017236;28;20612;-73
2021/12/03 08:34:56;;;;;;;28.80;26.90;;;2.40;85.40;;;;;;5026883;28;20288;-73
2021/12/03 08:37:23;;;;;;;28.75;26.60;;;2.50;85.00;;;;;;5018759;28;20213;-73
2021/12/03 08:39:51;;;;;;;28.60;26.70;;;2.60;84.50;;;;;;5022528;28;20189;-73
2021/12/03 08:42:19;;;;;;;27.85;26.02;;;2.60;84.70;;;;;;5025185;28;20218;-73
2021/12/03 08:44:46;;;;;;;26.13;24.20;;;2.70;84.60;;;;;;5026143;28;20224;-70
2021/12/03 08:47:13;;;;;;;29.25;27.27;;;2.70;84.80;;;;;;5023239;28;20201;-72
2021/12/03 08:49:46;;;;;;;27.55;25.55;;;2.80;86.40;;;;;;5028499;28;20193;-77
2021/12/03 08:52:29;;;;;;;28.15;26.25;;;2.90;88.40;;;;;;5022350;28;20202;-73
2021/12/03 08:54:57;;;;;;;26.83;24.73;;;2.90;86.00;;;;;;5027219;28;20212;-76
2021/12/03 08:57:25;;;;;;;25.83;23.75;;;2.90;91.40;;;;;;5024515;28;20871;-72
2021/12/03 08:59:54;;;;;;;27.40;25.35;;;2.90;87.60;;;;;;5029137;28;20194;-74
2021/12/03 09:02:22;;;;;;;26.95;25.02;;;3.10;85.00;;;;;;5024668;28;20207;-74
2021/12/03 09:04:51;;;;;;;26.75;24.88;;;3.10;85.20;;;;;;5026964;28;20231;-74
2021/12/03 09:07:19;;;;;;;27.10;25.40;;;3.00;84.40;;;;;;5026429;28;20533;-74
2021/12/03 09:09:46;;;;;;;26.92;25.23;;;3.10;84.80;;;;;;5023737;28;20205;-74
2021/12/03 09:12:14;;;;;;;27.60;25.70;;;3.10;81.90;;;;;;5023691;28;20292;-79
2021/12/03 09:14:43;;;;;;;25.55;23.95;;;3.10;83.40;;;;;;5027872;28;20227;-74
2021/12/03 09:17:22;;;;;;;26.85;25.15;;;3.30;80.80;;;;;;5026040;28;20241;-75
2021/12/03 09:19:56;;;;;;;25.85;24.35;;;3.30;79.70;;;;;;5025145;28;20295;-74
2021/12/03 09:22:32;;;;;;;26.55;24.85;;;3.40;77.70;;;;;;5024309;28;20288;-73
2021/12/03 09:25:00;;;;;;;24.63;23.05;;;3.40;77.70;;;;;;5025012;28;20224;-74
2021/12/03 09:27:28;;;;;;;26.35;24.73;;;3.40;76.60;;;;;;5023617;28;20611;-74
2021/12/03 09:29:56;;;;;;;26.13;24.63;;;3.50;76.10;;;;;;5028494;28;20211;-74
2021/12/03 09:32:27;;;;;;;23.92;22.63;;;3.60;74.70;;;;;;5026867;28;20281;-74
2021/12/03 09:34:54;;;;;;;25.05;23.42;;;3.60;74.60;;;;;;5027255;28;20197;-74
2021/12/03 09:37:21;;;;;;;24.95;23.40;;;3.50;74.50;;;;;;5025358;28;20232;-71
2021/12/03 09:39:48;;;;;;;25.17;23.60;;;3.60;74.60;;;;;;5024355;28;20197;-70
2021/12/03 09:42:18;;;;;;;24.55;23.05;;;3.60;74.40;;;;;;5025017;28;20197;-70
2021/12/03 09:44:49;;;;;;;23.30;22.10;;;3.60;74.20;;;;;;5026568;28;20278;-71
2021/12/03 09:47:17;;;;;;;25.02;23.42;;;3.80;74.00;;;;;;5018369;28;20190;-70
2021/12/03 09:49:44;;;;;;;24.20;22.85;;;3.80;73.60;;;;;;5024219;28;20197;-71
2021/12/03 09:52:22;;;;;;;23.15;21.90;;;3.80;73.90;;;;;;5024571;28;20198;-71
2021/12/03 09:54:51;;;;;;;24.73;23.35;;;3.70;73.80;;;;;;5021771;28;20595;-71
2021/12/03 09:57:28;;;;;;;23.98;22.58;;;3.70;73.90;;;;;;5020142;28;20217;-71
2021/12/03 10:00:07;;;;;;;23.90;22.50;;;3.70;73.60;;;;;;5027545;28;20197;-74
2021/12/03 10:02:56;;;;;;;27.13;25.52;;;3.70;73.80;;;;;;5022938;28;20636;-72
2021/12/03 10:13:46;;;;;;;22.85;21.58;;;4.10;73.00;;;;;;5029169;28;20205;-73
2021/12/03 10:16:35;;;;;;;24.10;22.50;;;4.00;73.20;;;;;;5031930;28;20282;-71
2021/12/03 10:19:18;;;;;;;24.00;22.70;;;4.10;73.20;;;;;;5027615;28;20212;-73
2021/12/03 10:30:19;;;;;;;24.77;23.35;;;4.10;72.40;;;;;;5030841;28;20598;-73
2021/12/03 10:33:08;;;;;;;23.55;22.13;;;4.10;72.60;;;;;;5016568;28;20196;-73
2021/12/03 10:35:58;;;;;;;24.45;23.17;;;4.10;72.50;;;;;;5025341;28;20220;-73
2021/12/03 10:38:44;;;;;;;25.75;24.25;;;4.20;72.80;;;;;;5026151;28;20201;-73
2021/12/03 10:41:23;;;;;;;25.27;23.88;;;4.10;72.90;;;;;;5029722;28;20197;-73
2021/12/03 10:49:55;;;;;;;25.35;23.85;;;4.20;72.80;;;;;;4974638;28;20330;-74
2021/12/03 10:52:31;;;;;;;23.75;22.13;;;4.30;73.30;;;;;;5023731;28;20193;-74
2021/12/03 10:58:19;;;;;;;24.05;22.65;;;4.40;74.10;;;;;;4976073;28;20302;-73
2021/12/03 11:43:21;;;;;;;25.70;24.10;;;5.60;70.40;;;;;;5028963;28;20213;-76
2021/12/03 13:57:08;;;;;;;24.15;22.55;;;5.60;69.20;;;;;;5034524;28;20678;-73
2021/12/03 14:05:32;;;;;;;24.13;22.67;;;5.50;68.80;;;;;;4949695;28;20214;-78
2021/12/03 14:36:35;;;;;;;24.30;22.90;;;5.20;70.80;;;;;;5029014;28;20630;-73
2021/12/03 14:39:24;;;;;;;23.83;22.25;;;5.20;70.90;;;;;;5024037;28;20193;-73
2021/12/03 14:42:08;;;;;;;23.80;22.33;;;5.20;71.70;;;;;;5025289;28;20212;-73
2021/12/03 14:45:01;;;;;;;23.15;21.88;;;5.20;72.30;;;;;;5026335;28;20217;-74
2021/12/03 14:47:49;;;;;;;24.17;22.65;;;5.20;70.50;;;;;;5024555;28;20193;-74
2021/12/03 14:55:53;;;;;;;25.63;24.13;;;5.00;70.90;;;;;;5027971;28;20211;-73
2021/12/03 14:58:21;;;;;;;23.33;22.05;;;4.90;71.40;;;;;;5021883;28;20217;-73
2021/12/03 15:01:00;;;;;;;24.88;23.48;;;4.90;71.30;;;;;;5027632;28;20651;-76
2021/12/03 15:03:44;;;;;;;26.17;24.58;;;4.90;71.80;;;;;;5025169;28;20225;-75
2021/12/03 15:06:28;;;;;;;25.50;24.10;;;4.80;72.60;;;;;;5023435;28;20210;-76
2021/12/03 15:08:58;;;;;;;25.65;24.35;;;4.70;73.20;;;;;;5026749;28;20221;-75
2021/12/03 15:25:29;;;;;;;24.33;22.92;;;4.30;75.90;;;;;;5007365;28;20601;-76
2021/12/03 15:30:55;;;;;;;24.52;23.13;;;4.10;79.60;;;;;;5026828;28;20368;-76
2021/12/03 15:33:37;;;;;;;25.05;23.30;;;4.10;80.30;;;;;;5020961;28;20710;-76
2021/12/03 15:36:08;;;;;;;23.75;22.45;;;4.10;78.60;;;;;;5017224;28;20205;-76
2021/12/03 15:38:54;;;;;;;25.55;23.95;;;4.00;77.40;;;;;;5025071;28;21644;-79
2021/12/03 15:58:21;;;;;;;22.02;20.63;;;3.70;82.50;;;;;;5018724;28;20261;-76
2021/12/03 16:03:42;;;;;;;25.70;23.90;;;3.60;81.00;;;;;;5025431;28;20224;-76
2021/12/03 16:06:33;;;;;;;21.70;20.40;;;3.50;90.60;;;;;;5026984;28;20196;-75
2021/12/03 16:11:50;;;;;;;24.92;23.20;;;3.50;81.30;;;;;;5020473;28;20204;-75
2021/12/03 16:14:42;;;;;;;24.48;22.88;;;3.60;79.80;;;;;;5025085;28;20221;-74
2021/12/03 16:25:50;;;;;;;25.00;23.10;;;3.60;78.10;;;;;;5024337;28;20205;-76
2021/12/03 16:45:23;;;;;;;24.38;22.98;;;3.40;80.50;;;;;;5022368;28;21021;-77
2021/12/03 16:51:07;;;;;;;24.55;23.15;;;3.50;81.00;;;;;;5017449;28;20254;-76
2021/12/03 16:53:34;;;;;;;25.33;23.77;;;3.40;80.40;;;;;;5017529;28;20222;-76
2021/12/03 16:56:07;;;;;;;674.15;82.32;;;3.40;80.40;;;;;;5017889;28;20229;-76
2021/12/03 16:58:35;;;;;;;21.65;20.35;;;3.30;86.30;;;;;;5025027;28;20217;-76
2021/12/03 17:01:05;;;;;;;22.92;21.42;;;3.40;86.40;;;;;;5017550;28;20208;-77
2021/12/03 17:03:41;;;;;;;22.95;21.73;;;3.40;84.40;;;;;;5027354;28;20237;-77
2021/12/03 17:09:11;;;;;;;22.15;20.63;;;3.40;82.80;;;;;;5022004;28;20597;-76
2021/12/03 17:12:00;;;;;;;23.25;21.80;;;3.30;82.10;;;;;;5028673;28;20205;-77
2021/12/03 17:48:15;;;;;;;23.67;22.38;;;3.70;76.70;;;;;;5024199;28;20228;-77
2021/12/03 17:51:03;;;;;;;22.27;21.08;;;3.70;76.70;;;;;;5019290;28;20272;-78
2021/12/03 17:53:48;;;;;;;23.70;22.20;;;3.70;75.70;;;;;;5021453;28;20220;-77
2021/12/03 17:56:16;;;;;;;23.52;22.23;;;3.80;74.70;;;;;;5026837;28;20208;-75
2021/12/03 17:58:45;;;;;;;23.45;22.05;;;3.70;76.60;;;;;;5026220;28;20319;-75
2021/12/03 18:01:19;;;;;;;24.98;23.40;;;3.70;75.10;;;;;;5024128;28;20679;-75
2021/12/03 18:03:52;;;;;;;26.27;24.67;;;3.70;75.10;;;;;;5024502;28;20217;-74
2021/12/03 18:09:11;;;;;;;24.33;22.92;;;3.60;74.30;;;;;;5011315;28;20319;-76
2021/12/03 18:14:41;;;;;;;22.35;20.77;;;3.60;73.90;;;;;;5026283;28;20636;-74
2021/12/03 18:48:03;;;;;;;24.88;23.33;;;3.80;73.60;;;;;;5015187;28;20730;-74
2021/12/03 18:53:36;;;;;;;24.95;23.45;;;3.90;73.20;;;;;;5021510;28;20857;-76
2021/12/03 18:56:05;;;;;;;25.48;23.48;;;3.90;73.90;;;;;;5023023;28;20295;-75
2021/12/03 18:58:32;;;;;;;25.65;23.70;;;3.80;77.80;;;;;;5026295;28;20308;-74
2021/12/03 19:01:00;;;;;;;23.73;22.30;;;3.90;74.80;;;;;;5030319;28;20277;-75
2021/12/03 19:03:32;;;;;;;24.48;23.08;;;3.90;73.20;;;;;;5027615;28;20229;-74
2021/12/03 19:06:11;;;;;;;23.83;22.17;;;3.90;72.60;;;;;;5029034;28;20291;-74
2021/12/03 19:08:45;;;;;;;25.40;23.70;;;4.00;72.40;;;;;;5024600;28;20486;-75
2021/12/03 19:11:17;;;;;;;24.50;22.90;;;3.90;74.70;;;;;;5022983;28;20284;-75
2021/12/03 19:13:44;;;;;;;23.58;22.27;;;3.90;75.20;;;;;;5023100;28;20322;-76